Time;durP1;ratioP1;P1;durP2;ratioP2;P2;SDS_P1;SDS_P2;PMS_P1;PMS_P2;Temp;Humidity;BMP_temperature;BMP_pressure;BME280_temperature;BME280_humidity;BME280_pressure;Samples;Min_cycle;Max_cycle;Signal;HPM_P1;HPM_P2
2022/11/23 00:01:46;;;;;;;;;;;;;;;7.35;100.00;98779.81;6277040;22;19915;-82
2022/11/23 00:04:13;;;;;;;;;;;;;;;7.23;100.00;98784.72;6277731;22;19911;-83
2022/11/23 00:06:40;;;;;;;;;;;;;;;7.23;100.00;98786.53;6278733;22;19907;-82
2022/11/23 00:09:05;;;;;;;;;;;;;;;7.15;100.00;98784.84;6226296;22;19911;-81
2022/11/23 00:11:32;;;;;;;;;;;;;;;7.27;100.00;98785.19;6276922;22;20362;-83
2022/11/23 00:14:00;;;;;;;;;;;;;;;7.14;100.00;98777.09;6277941;22;19911;-82
2022/11/23 00:16:26;;;;;;;;;;;;;;;7.27;100.00;98780.72;6278354;22;19934;-81
2022/11/23 00:18:53;;;;;;;;;;;;;;;7.17;100.00;98779.38;6279474;22;20234;-82
2022/11/23 00:21:20;;;;;;;;;;;;;;;7.02;100.00;98781.19;6278202;22;19921;-81
2022/11/23 00:23:45;;;;;;;;;;;;;;;6.90;100.00;98782.63;6277518;22;20309;-81
2022/11/23 00:26:10;;;;;;;;;;;;;;;7.09;100.00;98788.16;6278054;22;19911;-81
2022/11/23 00:28:38;;;;;;;;;;;;;;;7.03;100.00;98785.44;6278039;22;19918;-81
2022/11/23 00:31:05;;;;;;;;;;;;;;;6.91;100.00;98779.84;6277917;22;19913;-81
2022/11/23 00:33:30;;;;;;;;;;;;;;;7.05;100.00;98780.84;6251083;22;19908;-82
2022/11/23 00:36:06;;;;;;;;;;;;;;;7.12;100.00;98781.75;6250194;22;19911;-82
2022/11/23 00:38:32;;;;;;;;;;;;;;;7.27;100.00;98785.19;6250234;22;20326;-80
2022/11/23 00:40:58;;;;;;;;;;;;;;;7.29;100.00;98778.72;6277092;22;19982;-83
2022/11/23 00:43:24;;;;;;;;;;;;;;;7.33;100.00;98789.72;6277019;22;20353;-83
2022/11/23 00:45:49;;;;;;;;;;;;;;;7.43;100.00;98786.78;6276989;22;19911;-81
2022/11/23 00:48:15;;;;;;;;;;;;;;;7.26;100.00;98787.00;6277575;22;20319;-82
2022/11/23 00:50:41;;;;;;;;;;;;;;;7.23;100.00;98794.44;6251098;22;19938;-81
2022/11/23 00:53:06;;;;;;;;;;;;;;;7.19;100.00;98795.81;6277911;22;19911;-80
2022/11/23 00:55:31;;;;;;;;;;;;;;;7.12;100.00;98798.38;6277846;22;19934;-82
2022/11/23 00:57:57;;;;;;;;;;;;;;;7.29;100.00;98799.78;6278522;22;19915;-82
2022/11/23 01:00:22;;;;;;;;;;;;;;;7.25;100.00;98803.00;6251187;22;19965;-83
2022/11/23 01:02:48;;;;;;;;;;;;;;;7.35;100.00;98813.25;6251454;22;19942;-82
2022/11/23 01:05:13;;;;;;;;;;;;;;;7.35;100.00;98810.63;6277307;22;19993;-82
2022/11/23 01:07:38;;;;;;;;;;;;;;;6.95;100.00;98812.72;6250799;22;19911;-82
2022/11/23 01:10:04;;;;;;;;;;;;;;;7.09;100.00;98811.09;6250132;22;19911;-82
2022/11/23 01:12:31;;;;;;;;;;;;;;;6.92;100.00;98812.25;6250397;22;20345;-82
2022/11/23 01:14:57;;;;;;;;;;;;;;;6.90;100.00;98814.22;6277874;22;19911;-81
2022/11/23 01:17:22;;;;;;;;;;;;;;;6.60;100.00;98816.81;6278233;22;19991;-83
2022/11/23 01:19:47;;;;;;;;;;;;;;;6.79;100.00;98815.50;6250680;22;20251;-80
2022/11/23 01:22:13;;;;;;;;;;;;;;;6.67;100.00;98817.75;6277724;22;19907;-81
2022/11/23 01:24:40;;;;;;;;;;;;;;;6.67;100.00;98824.81;6281547;22;19918;-82
2022/11/23 01:27:07;;;;;;;;;;;;;;;6.43;100.00;98828.47;6257935;22;19911;-81
2022/11/23 01:29:33;;;;;;;;;;;;;;;6.19;100.00;98837.41;6256845;22;19911;-82
2022/11/23 01:32:00;;;;;;;;;;;;;;;5.90;100.00;98833.81;6301693;22;19986;-81
2022/11/23 01:34:25;;;;;;;;;;;;;;;5.78;100.00;98833.34;6304297;22;19907;-82
2022/11/23 01:36:51;;;;;;;;;;;;;;;5.82;100.00;98829.38;6298756;22;19923;-81
2022/11/23 01:39:16;;;;;;;;;;;;;;;5.69;100.00;98829.97;6257371;22;20312;-82
2022/11/23 01:41:43;;;;;;;;;;;;;;;5.57;100.00;98825.22;6280561;22;19922;-82
2022/11/23 01:44:38;;;;;;;;;;;;;;;5.59;100.00;98839.84;6280436;22;19911;-81
2022/11/23 01:47:05;;;;;;;;;;;;;;;5.64;100.00;98840.16;6212215;22;19943;-81
2022/11/23 01:49:34;;;;;;;;;;;;;;;5.77;100.00;98849.31;6279582;22;19957;-81
2022/11/23 01:52:04;;;;;;;;;;;;;;;5.81;100.00;98855.84;6279648;22;19915;-82
2022/11/23 01:54:38;;;;;;;;;;;;;;;6.04;100.00;98848.81;6253434;22;19914;-80
2022/11/23 01:57:11;;;;;;;;;;;;;;;6.16;100.00;98865.88;6279787;22;19940;-81
2022/11/23 01:59:36;;;;;;;;;;;;;;;6.12;100.00;98857.50;6279291;22;20012;-80
2022/11/23 02:02:05;;;;;;;;;;;;;;;6.06;100.00;98860.00;6252726;22;19918;-81
2022/11/23 02:04:32;;;;;;;;;;;;;;;6.16;100.00;98858.75;6279796;22;19915;-82
2022/11/23 02:06:59;;;;;;;;;;;;;;;6.03;100.00;98855.88;6279766;22;19918;-81
2022/11/23 02:09:25;;;;;;;;;;;;;;;6.05;100.00;98855.72;6251944;22;19911;-82
2022/11/23 02:11:51;;;;;;;;;;;;;;;6.20;100.00;98864.50;6252053;22;19914;-83
2022/11/23 02:14:16;;;;;;;;;;;;;;;6.30;100.00;98870.34;6278768;22;19918;-82
2022/11/23 02:16:42;;;;;;;;;;;;;;;6.00;100.00;98865.97;6251541;22;19915;-82
2022/11/23 02:19:26;;;;;;;;;;;;;;;5.86;100.00;98882.47;6251415;22;19911;-81
2022/11/23 02:21:52;;;;;;;;;;;;;;;5.71;100.00;98879.69;6279195;22;20388;-82
2022/11/23 02:24:34;;;;;;;;;;;;;;;5.82;100.00;98881.13;6278507;22;19911;-81
2022/11/23 02:27:00;;;;;;;;;;;;;;;5.89;100.00;98890.84;6278513;22;20238;-82
2022/11/23 02:29:27;;;;;;;;;;;;;;;5.59;100.00;98891.59;6251902;22;19993;-80
2022/11/23 02:31:52;;;;;;;;;;;;;;;5.71;100.00;98901.56;6278281;22;20235;-82
2022/11/23 02:34:24;;;;;;;;;;;;;;;5.63;100.00;98906.81;6251007;22;20347;-82
2022/11/23 02:36:53;;;;;;;;;;;;;;;5.83;100.00;98922.22;6279091;22;19918;-82
2022/11/23 02:39:19;;;;;;;;;;;;;;;5.97;100.00;98924.13;6251431;22;19911;-82
2022/11/23 02:41:47;;;;;;;;;;;;;;;6.01;100.00;98928.06;6278937;22;19918;-82
2022/11/23 02:44:31;;;;;;;;;;;;;;;5.62;100.00;98923.59;6278431;22;19911;-80
2022/11/23 02:46:56;;;;;;;;;;;;;;;5.71;100.00;98924.38;6251268;22;19942;-79
2022/11/23 02:49:22;;;;;;;;;;;;;;;5.72;100.00;98929.47;6279005;22;19915;-82
2022/11/23 02:51:49;;;;;;;;;;;;;;;5.95;100.00;98926.94;6251934;22;19911;-81
2022/11/23 02:54:15;;;;;;;;;;;;;;;6.12;100.00;98923.25;6279113;22;19911;-82
2022/11/23 02:56:40;;;;;;;;;;;;;;;6.20;100.00;98922.38;6279414;22;19912;-82
2022/11/23 02:59:07;;;;;;;;;;;;;;;6.35;100.00;98935.63;6251744;22;19983;-82
2022/11/23 03:01:32;;;;;;;;;;;;;;;6.46;100.00;98940.50;6251485;22;20234;-82
2022/11/23 03:03:58;;;;;;;;;;;;;;;6.37;100.00;98944.97;6251818;22;19946;-82
2022/11/23 03:06:25;;;;;;;;;;;;;;;6.18;100.00;98942.78;6251546;22;20374;-82
2022/11/23 03:08:51;;;;;;;;;;;;;;;6.12;100.00;98941.66;6251683;22;19988;-82
2022/11/23 03:11:16;;;;;;;;;;;;;;;5.84;100.00;98947.50;6278286;22;19988;-83
2022/11/23 03:13:43;;;;;;;;;;;;;;;5.91;100.00;98951.13;6225411;22;20345;-81
2022/11/23 03:16:08;;;;;;;;;;;;;;;5.93;100.00;98955.22;6251049;22;19934;-81
2022/11/23 03:18:34;;;;;;;;;;;;;;;5.70;100.00;98949.06;6250794;22;19922;-81
2022/11/23 03:21:04;;;;;;;;;;;;;;;5.56;100.00;98947.13;6251252;22;19937;-81
2022/11/23 03:23:29;;;;;;;;;;;;;;;5.56;100.00;98947.94;6251301;22;19933;-81
2022/11/23 03:25:56;;;;;;;;;;;;;;;5.56;100.00;98945.31;6251763;22;20341;-81
2022/11/23 03:28:22;;;;;;;;;;;;;;;5.44;100.00;98957.16;6252167;22;20239;-82
2022/11/23 03:30:48;;;;;;;;;;;;;;;5.47;100.00;98956.81;6252137;22;19957;-82
2022/11/23 03:33:13;;;;;;;;;;;;;;;5.48;100.00;98958.47;6279540;22;19957;-82
2022/11/23 03:35:39;;;;;;;;;;;;;;;5.56;100.00;98953.19;6251518;22;19911;-81
2022/11/23 03:38:19;;;;;;;;;;;;;;;5.82;100.00;98960.00;6251985;22;20330;-81
2022/11/23 03:40:45;;;;;;;;;;;;;;;5.83;100.00;98961.66;6252135;22;19917;-82
2022/11/23 03:43:27;;;;;;;;;;;;;;;5.78;100.00;98958.69;6252289;22;19907;-81
2022/11/23 03:45:52;;;;;;;;;;;;;;;5.82;100.00;98960.00;6252043;22;20000;-81
2022/11/23 03:48:17;;;;;;;;;;;;;;;5.93;100.00;98963.09;6253534;22;19922;-82
2022/11/23 03:50:44;;;;;;;;;;;;;;;5.88;100.00;98956.72;6253240;22;19911;-80
2022/11/23 03:53:09;;;;;;;;;;;;;;;5.55;100.00;98951.53;6251919;22;20223;-82
2022/11/23 03:55:35;;;;;;;;;;;;;;;5.43;100.00;98950.28;6282372;22;19911;-80
2022/11/23 03:58:01;;;;;;;;;;;;;;;5.25;100.00;98952.25;6252266;22;20251;-81
2022/11/23 04:00:30;;;;;;;;;;;;;;;5.22;100.00;98942.91;6251853;22;19915;-82
2022/11/23 04:02:56;;;;;;;;;;;;;;;4.99;100.00;98951.63;6252345;22;19911;-83
2022/11/23 04:05:51;;;;;;;;;;;;;;;5.04;100.00;98944.91;6245380;22;19912;-82
2022/11/23 04:08:45;;;;;;;;;;;;;;;5.04;100.00;98944.06;6278513;22;19911;-82
2022/11/23 04:11:18;;;;;;;;;;;;;;;5.30;100.00;98939.47;6251923;22;19911;-81
2022/11/23 04:13:47;;;;;;;;;;;;;;;5.50;100.00;98945.97;6251598;22;19907;-81
2022/11/23 04:16:12;;;;;;;;;;;;;;;5.53;100.00;98950.91;6250937;22;19922;-82
2022/11/23 04:18:38;;;;;;;;;;;;;;;5.57;100.00;98951.34;6250586;22;20258;-79
2022/11/23 04:21:07;;;;;;;;;;;;;;;5.69;100.00;98952.66;6250406;22;19911;-82
2022/11/23 04:23:32;;;;;;;;;;;;;;;5.74;100.00;98952.94;6278014;22;20226;-81
2022/11/23 04:25:58;;;;;;;;;;;;;;;5.75;100.00;98962.50;6250595;22;19985;-83
2022/11/23 04:28:23;;;;;;;;;;;;;;;5.67;100.00;98958.06;6277241;22;19942;-83
2022/11/23 04:30:49;;;;;;;;;;;;;;;5.48;100.00;98966.34;6250292;22;19987;-82
2022/11/23 04:33:15;;;;;;;;;;;;;;;5.45;100.00;98958.78;6250198;22;19911;-82
2022/11/23 04:35:42;;;;;;;;;;;;;;;5.29;100.00;98964.06;6249897;22;19949;-82
2022/11/23 04:38:07;;;;;;;;;;;;;;;5.33;100.00;98970.66;6277352;22;19907;-81
2022/11/23 04:40:32;;;;;;;;;;;;;;;5.37;100.00;98969.31;6249988;22;19911;-82
2022/11/23 04:43:02;;;;;;;;;;;;;;;5.30;100.00;98970.97;6249747;22;20033;-82
2022/11/23 04:45:31;;;;;;;;;;;;;;;5.12;100.00;98972.97;6251955;22;19994;-81
2022/11/23 04:48:01;;;;;;;;;;;;;;;4.94;100.00;98985.44;6277542;22;20208;-81
2022/11/23 04:50:27;;;;;;;;;;;;;;;4.92;100.00;98977.72;6251437;22;19986;-82
2022/11/23 04:52:54;;;;;;;;;;;;;;;5.19;100.00;98979.19;6278005;22;19911;-81
2022/11/23 04:55:25;;;;;;;;;;;;;;;5.29;100.00;98973.75;6251318;22;19967;-82
2022/11/23 04:57:55;;;;;;;;;;;;;;;5.38;100.00;98976.22;6250687;22;19911;-79
2022/11/23 05:00:22;;;;;;;;;;;;;;;5.31;100.00;98977.84;6251382;22;19911;-80
2022/11/23 05:02:47;;;;;;;;;;;;;;;5.18;100.00;98983.63;6251058;22;19933;-80
2022/11/23 05:05:18;;;;;;;;;;;;;;;4.84;100.00;98982.97;6250881;22;19919;-81
2022/11/23 05:07:46;;;;;;;;;;;;;;;4.85;100.00;98973.28;6278627;22;19941;-81
2022/11/23 05:10:13;;;;;;;;;;;;;;;4.94;100.00;98983.63;6250733;22;19911;-80
2022/11/23 05:12:39;;;;;;;;;;;;;;;5.00;100.00;98980.38;6225103;22;19918;-80
2022/11/23 05:15:06;;;;;;;;;;;;;;;4.97;100.00;98985.13;6250078;22;19982;-80
2022/11/23 05:17:36;;;;;;;;;;;;;;;4.87;100.00;98985.25;6249778;22;19923;-79
2022/11/23 05:20:06;;;;;;;;;;;;;;;4.78;100.00;98995.91;6278289;22;19918;-79
2022/11/23 05:22:34;;;;;;;;;;;;;;;4.77;100.00;98994.28;6226110;22;19918;-80
2022/11/23 05:24:59;;;;;;;;;;;;;;;4.69;100.00;98993.28;6277093;22;19911;-80
2022/11/23 05:27:26;;;;;;;;;;;;;;;4.59;100.00;98986.53;6249475;22;20315;-80
2022/11/23 05:29:52;;;;;;;;;;;;;;;4.88;100.00;98991.31;6249667;22;19921;-80
2022/11/23 05:32:18;;;;;;;;;;;;;;;4.78;100.00;98993.28;6277244;22;19990;-82
2022/11/23 05:34:43;;;;;;;;;;;;;;;4.55;100.00;98991.28;6249878;22;19911;-80
2022/11/23 05:37:11;;;;;;;;;;;;;;;4.81;100.00;98993.78;6249328;22;19911;-79
2022/11/23 05:39:45;;;;;;;;;;;;;;;4.94;100.00;99006.44;6249751;22;19917;-82
2022/11/23 05:42:12;;;;;;;;;;;;;;;4.94;100.00;98998.56;6227476;22;20309;-79
2022/11/23 05:44:40;;;;;;;;;;;;;;;4.61;100.00;98995.88;6249527;22;19918;-80
2022/11/23 05:47:12;;;;;;;;;;;;;;;4.52;100.00;99002.09;6249801;22;19972;-81
2022/11/23 05:49:37;;;;;;;;;;;;;;;4.34;100.00;99001.41;6224268;22;19990;-81
2022/11/23 05:52:04;;;;;;;;;;;;;;;4.43;100.00;99008.31;6249813;22;20349;-79
2022/11/23 05:54:30;;;;;;;;;;;;;;;4.29;100.00;99005.47;6250170;22;19930;-79
2022/11/23 05:57:01;;;;;;;;;;;;;;;4.23;100.00;99009.56;6250371;22;19915;-81
2022/11/23 05:59:35;;;;;;;;;;;;;;;4.04;100.00;99012.44;6249964;22;19911;-80
2022/11/23 06:02:01;;;;;;;;;;;;;;;4.14;100.00;99002.66;6251009;22;19994;-81
2022/11/23 06:04:30;;;;;;;;;;;;;;;3.92;100.00;99011.06;6251152;22;19919;-82
2022/11/23 06:06:59;;;;;;;;;;;;;;;3.96;100.00;99012.41;6253431;22;19911;-81
2022/11/23 06:09:29;;;;;;;;;;;;;;;3.95;100.00;99013.38;6253637;22;19911;-81
2022/11/23 06:12:00;;;;;;;;;;;;;;;3.98;100.00;99019.13;6257631;22;19946;-81
2022/11/23 06:14:26;;;;;;;;;;;;;;;3.88;100.00;99023.66;6257796;22;20242;-82
2022/11/23 06:16:51;;;;;;;;;;;;;;;3.94;100.00;99027.47;6260685;22;19911;-81
2022/11/23 06:19:49;;;;;;;;;;;;;;;3.86;100.00;99027.44;6272168;22;19911;-81
2022/11/23 06:22:15;;;;;;;;;;;;;;;3.73;100.00;99029.66;6298821;22;19934;-82
2022/11/23 06:24:48;;;;;;;;;;;;;;;3.79;100.00;99034.25;6272483;22;19911;-84
2022/11/23 06:27:37;;;;;;;;;;;;;;;3.63;100.00;99046.31;6271360;22;20387;-82
2022/11/23 06:30:10;;;;;;;;;;;;;;;3.60;100.00;99051.84;6256907;22;19935;-81
2022/11/23 06:32:36;;;;;;;;;;;;;;;3.99;100.00;99062.72;6262530;22;19933;-81
2022/11/23 06:35:02;;;;;;;;;;;;;;;4.25;100.00;99067.91;6238108;22;19969;-80
2022/11/23 06:37:34;;;;;;;;;;;;;;;4.45;100.00;99085.03;6262904;22;19930;-81
2022/11/23 06:40:00;;;;;;;;;;;;;;;4.92;100.00;99095.03;6259322;22;19911;-81
2022/11/23 06:42:25;;;;;;;;;;;;;;;5.12;100.00;99104.25;6251513;22;19915;-79
2022/11/23 06:44:51;;;;;;;;;;;;;;;5.39;100.00;99111.84;6252288;22;19953;-81
2022/11/23 06:47:17;;;;;;;;;;;;;;;5.73;100.00;99115.09;6252821;22;19919;-84
2022/11/23 06:49:42;;;;;;;;;;;;;;;5.69;100.00;99116.44;6225879;22;19915;-82
2022/11/23 06:52:17;;;;;;;;;;;;;;;6.06;100.00;99123.00;6250729;22;20335;-83
2022/11/23 06:54:42;;;;;;;;;;;;;;;5.83;100.00;99129.91;6251293;22;19922;-82
2022/11/23 06:57:08;;;;;;;;;;;;;;;5.87;100.00;99124.16;6250746;22;19994;-83
2022/11/23 06:59:33;;;;;;;;;;;;;;;6.62;100.00;99138.63;6251213;22;19917;-83
2022/11/23 07:01:59;;;;;;;;;;;;;;;7.71;100.00;99141.91;6251408;22;19911;-85
2022/11/23 07:04:27;;;;;;;;;;;;;;;7.80;100.00;99150.56;6227028;22;19945;-81
2022/11/23 07:06:52;;;;;;;;;;;;;;;8.05;100.00;99154.63;6251347;22;19911;-82
2022/11/23 07:09:27;;;;;;;;;;;;;;;8.46;100.00;99164.78;6251153;22;19911;-83
2022/11/23 07:12:09;;;;;;;;;;;;;;;9.14;100.00;99172.41;6250761;22;19981;-79
2022/11/23 07:14:35;;;;;;;;;;;;;;;9.52;100.00;99178.28;6250948;22;20334;-82
2022/11/23 07:17:00;;;;;;;;;;;;;;;10.37;100.00;99176.41;6249541;22;20333;-80
2022/11/23 07:19:26;;;;;;;;;;;;;;;10.03;100.00;99186.91;6227707;22;20223;-83
2022/11/23 07:21:55;;;;;;;;;;;;;;;10.36;100.00;99185.38;6251304;22;19911;-81
2022/11/23 07:24:20;;;;;;;;;;;;;;;10.21;100.00;99182.81;6225946;22;19934;-83
2022/11/23 07:26:46;;;;;;;;;;;;;;;10.60;100.00;99187.56;6251888;22;19943;-81
2022/11/23 07:29:11;;;;;;;;;;;;;;;9.91;100.00;99191.88;6251482;22;19911;-82
2022/11/23 07:31:37;;;;;;;;;;;;;;;10.43;100.00;99194.19;6251346;22;19911;-82
2022/11/23 07:34:02;;;;;;;;;;;;;;;10.50;100.00;99202.16;6251670;22;19927;-83
2022/11/23 07:36:28;;;;;;;;;;;;;;;10.06;100.00;99199.75;6278386;22;19911;-83
2022/11/23 07:38:53;;;;;;;;;;;;;;;10.85;100.00;99201.97;6251068;22;19965;-86
2022/11/23 07:41:19;;;;;;;;;;;;;;;11.43;100.00;99209.56;6251196;22;19934;-85
2022/11/23 07:43:59;;;;;;;;;;;;;;;11.21;100.00;99211.50;6251538;22;19911;-81
2022/11/23 07:46:24;;;;;;;;;;;;;;;10.62;100.00;99205.91;6278038;22;20277;-85
2022/11/23 07:48:50;;;;;;;;;;;;;;;9.82;100.00;99212.38;6278715;22;19915;-83
2022/11/23 07:51:18;;;;;;;;;;;;;;;9.84;100.00;99213.00;6251756;22;19934;-81
2022/11/23 07:53:44;;;;;;;;;;;;;;;8.97;100.00;99203.50;6278278;22;19911;-86
2022/11/23 07:56:09;;;;;;;;;;;;;;;8.95;100.00;99210.75;6278514;22;19914;-84
2022/11/23 07:58:35;;;;;;;;;;;;;;;8.97;100.00;99207.94;6278575;22;19912;-86
2022/11/23 08:01:00;;;;;;;;;;;;;;;8.90;100.00;99214.97;6277800;22;19911;-85
2022/11/23 08:03:26;;;;;;;;;;;;;;;8.64;100.00;99208.34;6278207;22;19911;-85
2022/11/23 08:05:51;;;;;;;;;;;;;;;8.01;100.00;99213.19;6251218;22;19956;-81
2022/11/23 08:08:17;;;;;;;;;;;;;;;8.35;100.00;99218.06;6253343;22;19990;-83
2022/11/23 08:10:42;;;;;;;;;;;;;;;7.76;100.00;99223.94;6250886;22;19915;-84
2022/11/23 08:13:07;;;;;;;;;;;;;;;7.52;100.00;99216.19;6278397;22;20331;-83
2022/11/23 08:15:33;;;;;;;;;;;;;;;7.02;100.00;99221.06;6278011;22;19953;-86
2022/11/23 08:18:00;;;;;;;;;;;;;;;6.93;100.00;99224.69;6278258;22;19922;-80
2022/11/23 08:20:26;;;;;;;;;;;;;;;6.70;100.00;99212.28;6277921;22;20251;-87
2022/11/23 08:22:54;;;;;;;;;;;;;;;7.18;100.00;99219.19;6278103;22;19911;-83
2022/11/23 08:25:20;;;;;;;;;;;;;;;7.20;100.00;99221.63;6278156;22;19911;-83
2022/11/23 08:27:45;;;;;;;;;;;;;;;7.34;100.00;99239.34;6277550;22;19911;-85
2022/11/23 08:30:11;;;;;;;;;;;;;;;7.34;100.00;99239.34;6277614;22;19911;-82
2022/11/23 08:32:36;;;;;;;;;;;;;;;7.33;100.00;99234.25;6277593;22;19911;-80
2022/11/23 08:35:02;;;;;;;;;;;;;;;7.57;100.00;99234.09;6277757;22;20413;-82
2022/11/23 08:37:27;;;;;;;;;;;;;;;7.59;100.00;99238.22;6277674;22;19917;-82
2022/11/23 08:39:53;;;;;;;;;;;;;;;7.46;100.00;99229.22;6277313;22;19990;-80
2022/11/23 08:42:18;;;;;;;;;;;;;;;7.58;100.00;99231.31;6277373;22;20204;-79
2022/11/23 08:44:43;;;;;;;;;;;;;;;7.23;100.00;99229.19;6277765;22;19911;-82
2022/11/23 08:47:09;;;;;;;;;;;;;;;6.96;100.00;99242.81;6250251;22;19922;-80
2022/11/23 08:49:34;;;;;;;;;;;;;;;7.02;100.00;99250.88;6277664;22;20336;-82
2022/11/23 08:51:59;;;;;;;;;;;;;;;7.16;100.00;99249.31;6280502;22;20060;-82
2022/11/23 08:54:25;;;;;;;;;;;;;;;7.15;100.00;99256.41;6278232;22;20354;-83
2022/11/23 08:56:50;;;;;;;;;;;;;;;7.39;100.00;99257.28;6277699;22;19915;-81
2022/11/23 08:59:16;;;;;;;;;;;;;;;7.36;100.00;99263.72;6277802;22;19914;-80
2022/11/23 09:01:42;;;;;;;;;;;;;;;7.19;100.00;99262.16;6277590;22;20390;-84
2022/11/23 09:04:08;;;;;;;;;;;;;;;7.22;100.00;99278.44;6277642;22;19911;-81
2022/11/23 09:06:33;;;;;;;;;;;;;;;7.19;100.00;99277.97;6277507;22;19965;-83
2022/11/23 09:08:58;;;;;;;;;;;;;;;7.25;100.00;99282.56;6250928;22;20361;-83
2022/11/23 09:11:25;;;;;;;;;;;;;;;7.40;100.00;99280.00;6277344;22;20334;-83
2022/11/23 09:13:50;;;;;;;;;;;;;;;7.41;100.00;99277.22;6277332;22;19998;-86
2022/11/23 09:16:16;;;;;;;;;;;;;;;7.44;100.00;99283.94;6277527;22;19911;-82
2022/11/23 09:18:41;;;;;;;;;;;;;;;7.34;100.00;99292.06;6277978;22;19956;-81
2022/11/23 09:21:07;;;;;;;;;;;;;;;7.35;100.00;99291.06;6277922;22;19915;-82
2022/11/23 09:23:32;;;;;;;;;;;;;;;7.57;100.00;99290.31;6277342;22;19954;-85
2022/11/23 09:26:01;;;;;;;;;;;;;;;7.78;100.00;99295.78;6277464;22;19961;-85
2022/11/23 09:28:27;;;;;;;;;;;;;;;7.77;100.00;99295.97;6277205;22;19922;-82
2022/11/23 09:30:53;;;;;;;;;;;;;;;7.92;100.00;99288.13;6277152;22;20246;-80
2022/11/23 09:33:22;;;;;;;;;;;;;;;7.97;100.00;99289.22;6249984;22;20349;-80
2022/11/23 09:35:54;;;;;;;;;;;;;;;8.02;100.00;99296.63;6277242;22;20351;-80
2022/11/23 09:38:20;;;;;;;;;;;;;;;7.95;100.00;99291.25;6277210;22;19943;-80
2022/11/23 09:40:45;;;;;;;;;;;;;;;7.89;100.00;99299.03;6277401;22;20357;-84
2022/11/23 09:43:29;;;;;;;;;;;;;;;7.99;100.00;99291.69;6277428;22;19938;-83
2022/11/23 09:45:59;;;;;;;;;;;;;;;8.02;100.00;99301.91;6279205;22;19943;-81
2022/11/23 09:48:43;;;;;;;;;;;;;;;8.04;100.00;99300.72;6251736;22;19922;-83
2022/11/23 09:51:14;;;;;;;;;;;;;;;8.04;100.00;99287.53;6278003;22;19911;-83
2022/11/23 09:53:42;;;;;;;;;;;;;;;7.97;100.00;99289.22;6277138;22;20387;-82
2022/11/23 09:56:14;;;;;;;;;;;;;;;7.92;100.00;99291.56;6278319;22;19957;-82
2022/11/23 09:58:40;;;;;;;;;;;;;;;8.10;100.00;99296.56;6277886;22;19962;-83
2022/11/23 10:01:09;;;;;;;;;;;;;;;8.13;100.00;99293.56;6278387;22;19946;-83
2022/11/23 10:03:36;;;;;;;;;;;;;;;8.17;100.00;99292.22;6250766;22;19911;-81
2022/11/23 10:06:10;;;;;;;;;;;;;;;8.14;100.00;99289.94;6278392;22;19915;-82
2022/11/23 10:08:48;;;;;;;;;;;;;;;8.14;100.00;99288.13;6276231;22;19911;-80
2022/11/23 10:11:32;;;;;;;;;;;;;;;8.32;100.00;99289.69;6277706;22;19911;-82
2022/11/23 10:14:27;;;;;;;;;;;;;;;8.54;100.00;99286.19;6277128;22;19918;-84
2022/11/23 10:16:55;;;;;;;;;;;;;;;8.29;100.00;99288.19;6225511;22;19915;-82
2022/11/23 10:19:30;;;;;;;;;;;;;;;8.27;100.00;99282.25;6279502;22;19911;-82
2022/11/23 10:22:10;;;;;;;;;;;;;;;8.28;100.00;99286.56;6278452;22;19911;-82
2022/11/23 10:24:48;;;;;;;;;;;;;;;8.24;100.00;99274.69;6278060;22;19996;-83
2022/11/23 10:27:18;;;;;;;;;;;;;;;8.28;100.00;99270.72;6279103;22;19911;-84
2022/11/23 10:29:43;;;;;;;;;;;;;;;8.32;100.00;99273.84;6279319;22;19918;-81
2022/11/23 10:32:27;;;;;;;;;;;;;;;8.34;100.00;99271.84;6278914;22;19911;-83
2022/11/23 10:35:02;;;;;;;;;;;;;;;8.53;100.00;99261.59;6278952;22;19915;-80
2022/11/23 10:37:27;;;;;;;;;;;;;;;8.58;100.00;99267.16;6279069;22;19911;-81
2022/11/23 10:39:56;;;;;;;;;;;;;;;8.67;100.00;99276.63;6278925;22;19918;-80
2022/11/23 10:42:21;;;;;;;;;;;;;;;8.58;100.00;99276.91;6279404;22;19911;-83
2022/11/23 10:44:48;;;;;;;;;;;;;;;8.55;100.00;99283.34;6279275;22;19980;-82
2022/11/23 10:47:32;;;;;;;;;;;;;;;8.58;100.00;99272.44;6279242;22;19916;-82
2022/11/23 10:49:57;;;;;;;;;;;;;;;8.62;100.00;99284.25;6279121;22;19957;-87
2022/11/23 10:52:30;;;;;;;;;;;;;;;8.68;100.00;99282.75;6280518;22;19915;-80
2022/11/23 10:55:05;;;;;;;;;;;;;;;8.82;100.00;99280.09;6284515;22;19911;-83
2022/11/23 10:57:32;;;;;;;;;;;;;;;8.86;100.00;99280.56;6285041;22;19911;-85
2022/11/23 11:00:03;;;;;;;;;;;;;;;9.00;100.00;99284.22;6293097;22;20318;-83
2022/11/23 11:02:36;;;;;;;;;;;;;;;8.99;100.00;99282.56;6303003;22;19926;-83
2022/11/23 11:05:24;;;;;;;;;;;;;;;9.17;100.00;99293.59;6301862;22;19895;-83
2022/11/23 11:07:49;;;;;;;;;;;;;;;9.35;100.00;99288.75;6291662;22;19917;-82
2022/11/23 11:10:30;;;;;;;;;;;;;;;9.40;100.00;99283.75;6279308;22;19978;-82
2022/11/23 11:12:56;;;;;;;;;;;;;;;9.54;100.00;99282.91;6278737;22;19911;-85
2022/11/23 11:15:22;;;;;;;;;;;;;;;9.42;100.00;99288.81;6279120;22;19989;-86
2022/11/23 11:17:53;;;;;;;;;;;;;;;9.57;100.00;99285.19;6279606;22;19922;-82
2022/11/23 11:20:30;;;;;;;;;;;;;;;9.54;100.00;99274.97;6279390;22;19911;-82
2022/11/23 11:23:01;;;;;;;;;;;;;;;9.82;100.00;99275.06;6278835;22;20048;-83
2022/11/23 11:25:30;;;;;;;;;;;;;;;9.79;100.00;99281.56;6251582;22;20301;-85
2022/11/23 11:27:55;;;;;;;;;;;;;;;9.63;100.00;99273.84;6278469;22;19918;-84
2022/11/23 11:30:28;;;;;;;;;;;;;;;9.70;100.00;99273.91;6278456;22;19907;-86
2022/11/23 11:33:13;;;;;;;;;;;;;;;9.78;100.00;99271.97;6278481;22;19915;-82
2022/11/23 11:35:41;;;;;;;;;;;;;;;9.94;100.00;99270.09;6278319;22;20295;-82
2022/11/23 11:38:23;;;;;;;;;;;;;;;9.91;100.00;99275.78;6251406;22;20311;-84
2022/11/23 11:40:50;;;;;;;;;;;;;;;10.04;100.00;99274.06;6278290;22;20216;-81
2022/11/23 11:43:21;;;;;;;;;;;;;;;10.12;100.00;99279.25;6278298;22;19934;-80
2022/11/23 11:45:49;;;;;;;;;;;;;;;10.20;100.00;99271.22;6278104;22;19969;-80
2022/11/23 11:48:20;;;;;;;;;;;;;;;10.13;100.00;99274.75;6278414;22;19915;-80
2022/11/23 11:50:51;;;;;;;;;;;;;;;9.99;100.00;99263.22;6278520;22;19915;-83
2022/11/23 11:53:20;;;;;;;;;;;;;;;10.11;100.00;99266.22;6250989;22;20254;-82
2022/11/23 11:55:54;;;;;;;;;;;;;;;10.23;100.00;99265.53;6277897;22;20010;-82
2022/11/23 11:58:21;;;;;;;;;;;;;;;9.98;100.00;99269.53;6277772;22;19987;-82
2022/11/23 12:00:48;;;;;;;;;;;;;;;10.03;100.00;99263.66;6250821;22;20249;-82
2022/11/23 12:03:13;;;;;;;;;;;;;;;10.12;100.00;99262.53;6277595;22;20246;-83
2022/11/23 12:05:38;;;;;;;;;;;;;;;10.09;100.00;99263.72;6277626;22;19911;-81
2022/11/23 12:08:12;;;;;;;;;;;;;;;10.20;100.00;99260.63;6277531;22;19911;-82
2022/11/23 12:10:44;;;;;;;;;;;;;;;10.14;100.00;99265.84;6278026;22;19911;-80
2022/11/23 12:13:12;;;;;;;;;;;;;;;10.16;100.00;99258.53;6277227;22;19915;-80
2022/11/23 12:15:41;;;;;;;;;;;;;;;10.16;100.00;99253.22;6280670;22;19911;-81
2022/11/23 12:18:10;;;;;;;;;;;;;;;10.16;100.00;99247.94;6278539;22;20315;-80
2022/11/23 12:20:35;;;;;;;;;;;;;;;10.15;100.00;99249.75;6279831;22;19911;-82
2022/11/23 12:23:12;;;;;;;;;;;;;;;10.36;100.00;99248.94;6279623;22;20350;-83
2022/11/23 12:25:42;;;;;;;;;;;;;;;10.44;100.00;99245.34;6277604;22;19918;-81
2022/11/23 12:28:16;;;;;;;;;;;;;;;10.41;100.00;99243.84;6278266;22;19961;-84
2022/11/23 12:30:50;;;;;;;;;;;;;;;10.52;100.00;99243.34;6278483;22;19918;-84
2022/11/23 12:33:21;;;;;;;;;;;;;;;10.52;100.00;99246.00;6279005;22;19918;-84
2022/11/23 12:35:55;;;;;;;;;;;;;;;10.41;100.00;99246.50;6276947;22;19915;-85
2022/11/23 12:38:28;;;;;;;;;;;;;;;10.40;100.00;99252.84;6278274;22;19911;-84
2022/11/23 12:40:54;;;;;;;;;;;;;;;10.48;100.00;99246.56;6277685;22;19982;-86
2022/11/23 12:43:27;;;;;;;;;;;;;;;10.52;100.00;99243.34;6277597;22;19933;-85
2022/11/23 12:45:53;;;;;;;;;;;;;;;10.55;100.00;99248.25;6281951;22;19994;-85
2022/11/23 12:48:21;;;;;;;;;;;;;;;10.59;100.00;99248.69;6251440;22;20346;-84
2022/11/23 12:50:53;;;;;;;;;;;;;;;10.62;100.00;99248.31;6278237;22;19911;-84
2022/11/23 12:53:22;;;;;;;;;;;;;;;10.64;100.00;99246.28;6280688;22;20387;-85